createdAt,value
2019-03-31T00:01:19.037Z,4.7
2019-03-31T00:06:21.839Z,4.6
2019-03-31T00:11:23.974Z,4.6
2019-03-31T00:16:26.437Z,4.4
2019-03-31T00:21:28.898Z,4.4
2019-03-31T00:26:31.350Z,4.3
2019-03-31T00:31:33.906Z,4.3
2019-03-31T00:36:36.714Z,4.2
2019-03-31T00:41:38.764Z,4.5
2019-03-31T00:46:41.205Z,4.6
2019-03-31T00:51:43.666Z,4.6
2019-03-31T00:56:46.126Z,4.6
2019-03-31T01:01:48.707Z,4.6
2019-03-31T01:06:51.338Z,4.5
2019-03-31T01:11:53.536Z,4.4
2019-03-31T01:16:56.056Z,4.3
2019-03-31T01:21:58.434Z,4.3
2019-03-31T01:27:00.981Z,4.3
2019-03-31T01:32:03.519Z,4.2
2019-03-31T01:37:06.302Z,4.2
2019-03-31T01:42:08.317Z,4.1
2019-03-31T01:47:10.758Z,4
2019-03-31T01:52:13.288Z,4
2019-03-31T01:57:15.688Z,4
2019-03-31T02:02:18.283Z,3.9
2019-03-31T02:07:21.017Z,4
2019-03-31T02:12:23.113Z,3.9
2019-03-31T02:17:25.580Z,3.9
2019-03-31T02:22:28.076Z,3.9
2019-03-31T02:27:30.515Z,3.8
2019-03-31T02:32:33.072Z,3.7
2019-03-31T02:37:35.410Z,3.8
2019-03-31T02:42:37.879Z,3.8
2019-03-31T02:47:40.366Z,3.7
2019-03-31T02:52:42.913Z,3.7
2019-03-31T02:57:45.278Z,3.7
2019-03-31T03:02:47.748Z,3.7
2019-03-31T03:07:50.633Z,3.6
2019-03-31T03:12:52.707Z,3.7
2019-03-31T03:17:55.183Z,3.6
2019-03-31T03:22:57.604Z,3.6
2019-03-31T03:28:00.261Z,3.6
2019-03-31T03:33:14.265Z,3.6
2019-03-31T03:38:05.804Z,3.4
2019-03-31T03:43:07.544Z,3.4
2019-03-31T03:48:09.939Z,3.3
2019-03-31T03:53:12.435Z,3.4
2019-03-31T03:58:15.011Z,3.5
2019-03-31T04:03:29.540Z,3.6
2019-03-31T04:08:24.835Z,3.7
2019-03-31T04:13:22.293Z,3.9
2019-03-31T04:18:29.746Z,4.1
2019-03-31T04:23:27.234Z,4.3
2019-03-31T04:28:29.657Z,4.4
2019-03-31T04:33:48.972Z,4.6
2019-03-31T04:38:35.038Z,4.7
2019-03-31T04:43:37.131Z,4.7
2019-03-31T04:48:39.604Z,4.8
2019-03-31T04:53:41.994Z,4.9
2019-03-31T04:58:44.431Z,4.8
2019-03-31T05:03:46.936Z,4.8
2019-03-31T05:08:49.372Z,4.6
2019-03-31T05:13:51.971Z,4.5
2019-03-31T05:18:54.282Z,4.5
2019-03-31T05:23:57.130Z,4.3
2019-03-31T05:28:59.234Z,4.3
2019-03-31T05:34:01.693Z,4.2
2019-03-31T05:39:04.161Z,4.2
2019-03-31T05:44:06.952Z,4.3
2019-03-31T05:49:09.084Z,4.4
2019-03-31T05:54:11.848Z,4.5
2019-03-31T05:59:13.997Z,4.8
2019-03-31T06:04:16.469Z,5.2
2019-03-31T06:09:19.010Z,5.5
2019-03-31T06:14:21.407Z,5.8
2019-03-31T06:19:23.837Z,6
2019-03-31T06:24:26.574Z,6.4
2019-03-31T06:29:28.750Z,6.7
2019-03-31T06:34:31.195Z,7
2019-03-31T06:39:34.285Z,7.6
2019-03-31T06:44:38.072Z,9.8
2019-03-31T06:49:38.589Z,12.6
2019-03-31T06:54:41.351Z,15.3
2019-03-31T06:59:43.588Z,17.9
2019-03-31T07:04:45.991Z,20.1
2019-03-31T07:09:48.435Z,22.2
2019-03-31T07:14:50.883Z,24.1
2019-03-31T07:19:53.357Z,25.8
2019-03-31T07:24:56.096Z,26.9
2019-03-31T07:29:58.248Z,27.9
2019-03-31T07:35:00.720Z,28.8
2019-03-31T07:40:03.589Z,29.6
2019-03-31T07:45:05.683Z,29.8
2019-03-31T07:50:08.129Z,30.1
2019-03-31T07:55:10.826Z,30.6
2019-03-31T08:00:13.007Z,31.5
2019-03-31T08:05:15.544Z,32.5
2019-03-31T08:10:18.143Z,33.2
2019-03-31T08:15:20.389Z,34.2
2019-03-31T08:20:22.847Z,34.9
2019-03-31T08:25:25.626Z,35.6
2019-03-31T08:30:27.761Z,36.1
2019-03-31T08:35:30.223Z,36.4
2019-03-31T08:40:32.728Z,36.7
2019-03-31T08:45:35.173Z,37.3
2019-03-31T08:50:37.615Z,37.7
2019-03-31T08:55:40.353Z,37.9
2019-03-31T09:00:42.600Z,38.2
2019-03-31T09:05:44.988Z,38.4
2019-03-31T09:10:47.472Z,38.5
2019-03-31T09:15:49.907Z,38.8
2019-03-31T09:20:52.377Z,39
2019-03-31T09:25:55.122Z,39.5
2019-03-31T09:30:57.321Z,39.7
2019-03-31T09:35:59.744Z,39.9
2019-03-31T09:41:02.222Z,40.1
2019-03-31T09:46:04.707Z,40.1
2019-03-31T09:51:07.167Z,39.9
2019-03-31T09:56:09.888Z,39.9
2019-03-31T10:01:12.096Z,40
2019-03-31T10:06:14.523Z,40.2
2019-03-31T10:11:17.016Z,40.3
2019-03-31T10:16:19.489Z,39.9
2019-03-31T10:21:21.927Z,40.1
2019-03-31T10:26:31.557Z,40.4
2019-03-31T10:31:26.819Z,40.5
2019-03-31T10:36:43.478Z,40.5
2019-03-31T10:41:31.760Z,40.3
2019-03-31T10:46:34.215Z,38.5
2019-03-31T10:51:36.766Z,38.2
2019-03-31T10:56:39.127Z,38.8
2019-03-31T11:01:41.573Z,39.3
2019-03-31T11:06:57.914Z,38.2
2019-03-31T11:11:46.518Z,37.8
2019-03-31T11:16:48.967Z,38.4
2019-03-31T11:21:51.468Z,38.8
2019-03-31T11:26:53.950Z,37.9
2019-03-31T11:31:56.349Z,38.2
2019-03-31T11:37:12.433Z,38.5
2019-03-31T11:42:01.269Z,39
2019-03-31T11:47:03.771Z,38.8
2019-03-31T11:52:06.244Z,37.5
2019-03-31T11:57:08.737Z,36
2019-03-31T12:02:11.115Z,35.3
2019-03-31T12:07:27.141Z,35
2019-03-31T12:12:16.050Z,34.9
2019-03-31T12:17:18.513Z,35.5
2019-03-31T12:22:20.987Z,36.5
2019-03-31T12:27:23.409Z,35.4
2019-03-31T12:32:25.887Z,32.3
2019-03-31T12:37:41.510Z,29.5
2019-03-31T12:42:30.812Z,28
2019-03-31T12:47:33.234Z,26.7
2019-03-31T12:52:46.001Z,25.6
2019-03-31T12:57:38.164Z,24.7
2019-03-31T13:02:40.619Z,24.1
2019-03-31T13:07:55.607Z,24.5
2019-03-31T13:12:45.560Z,24.9
2019-03-31T13:17:47.991Z,24.8
2019-03-31T13:22:50.557Z,24.3
2019-03-31T13:27:53.013Z,23.7
2019-03-31T13:32:55.362Z,23.4
2019-03-31T13:38:10.197Z,23
2019-03-31T13:43:00.291Z,22.3
2019-03-31T13:48:02.734Z,21.3
2019-03-31T13:53:05.376Z,20.5
2019-03-31T13:58:08.839Z,19.7
2019-03-31T14:03:10.122Z,19.3
2019-03-31T14:08:24.902Z,18.9
2019-03-31T14:13:15.043Z,18.4
2019-03-31T14:18:17.481Z,17.9
2019-03-31T14:23:19.952Z,17.6
2019-03-31T14:28:22.421Z,17.3
2019-03-31T14:33:24.862Z,16.9
2019-03-31T14:38:39.344Z,16.5
2019-03-31T14:43:29.815Z,16.3
2019-03-31T14:48:32.235Z,16
2019-03-31T14:53:34.701Z,15.8
2019-03-31T14:58:37.271Z,15.6
2019-03-31T15:03:40.108Z,15.3
2019-03-31T15:08:53.672Z,15
2019-03-31T15:13:44.534Z,14.6
2019-03-31T15:18:47.006Z,14.3
2019-03-31T15:23:49.451Z,14.1
2019-03-31T15:28:51.935Z,13.6
2019-03-31T15:39:08.043Z,12.8
2019-03-31T15:43:59.291Z,12.5
2019-03-31T15:49:01.735Z,12.2
2019-03-31T15:54:04.208Z,12
2019-03-31T15:59:06.697Z,11.8
2019-03-31T16:04:09.320Z,11.6
2019-03-31T16:09:22.623Z,11.5
2019-03-31T16:14:14.115Z,11.4
2019-03-31T16:19:16.510Z,11.3
2019-03-31T16:24:19.020Z,11.2
2019-03-31T16:29:21.471Z,11.1
2019-03-31T16:34:23.859Z,11
2019-03-31T16:39:36.797Z,10.9
2019-03-31T16:44:28.775Z,10.8
2019-03-31T16:49:31.290Z,10.7
2019-03-31T16:54:33.674Z,10.6
2019-03-31T16:59:36.159Z,10.5
2019-03-31T17:04:38.655Z,10.5
2019-03-31T17:09:51.127Z,10.4
2019-03-31T17:14:43.536Z,10.3
2019-03-31T17:19:46.011Z,10.2
2019-03-31T17:24:48.472Z,10.2
2019-03-31T17:29:50.941Z,10.2
2019-03-31T17:34:53.375Z,10.1
2019-03-31T17:40:05.695Z,10.1
2019-03-31T17:44:58.254Z,10.1
2019-03-31T17:50:00.774Z,10
2019-03-31T17:55:03.169Z,10
2019-03-31T18:00:05.737Z,9.9
2019-03-31T18:05:08.083Z,9.9
2019-03-31T18:10:20.391Z,9.9
2019-03-31T18:15:13.009Z,9.9
2019-03-31T18:20:15.487Z,9.8
2019-03-31T18:25:17.961Z,9.7
2019-03-31T18:30:20.425Z,9.6
2019-03-31T18:35:22.835Z,9.5
2019-03-31T18:40:34.620Z,9.4
2019-03-31T18:45:27.749Z,9.2
2019-03-31T18:50:30.199Z,9
2019-03-31T18:55:32.693Z,8.9
2019-03-31T19:00:35.165Z,8.8
2019-03-31T19:05:37.600Z,8.9
2019-03-31T19:10:49.039Z,8.9
2019-03-31T19:15:42.500Z,8.9
2019-03-31T19:20:44.962Z,8.9
2019-03-31T19:25:47.399Z,8.9
2019-03-31T19:30:49.925Z,8.9
2019-03-31T19:35:52.350Z,8.9
2019-03-31T19:41:03.652Z,8.8
2019-03-31T19:45:57.241Z,8.9
2019-03-31T19:50:59.833Z,8.8
2019-03-31T19:56:07.634Z,8.9
2019-03-31T20:01:04.645Z,8.8
2019-03-31T20:06:07.064Z,8.8
2019-03-31T20:11:09.813Z,8.8
2019-03-31T20:16:12.047Z,8.9
2019-03-31T20:21:14.491Z,8.8
2019-03-31T20:26:16.881Z,8.8
2019-03-31T20:31:19.360Z,8.8
2019-03-31T20:36:21.888Z,8.8
2019-03-31T20:41:24.564Z,8.7
2019-03-31T20:46:26.713Z,8.7
2019-03-31T20:51:29.228Z,8.7
2019-03-31T20:56:31.694Z,8.7
2019-03-31T21:01:34.105Z,8.7
2019-03-31T21:06:36.906Z,8.7
2019-03-31T21:11:39.285Z,8.7
2019-03-31T21:16:41.483Z,8.6
2019-03-31T21:21:43.938Z,8.6
2019-03-31T21:26:46.488Z,8.6
2019-03-31T21:31:48.885Z,8.5
2019-03-31T21:36:51.547Z,8.5
2019-03-31T21:41:54.037Z,8.4
2019-03-31T21:46:56.225Z,8.4
2019-03-31T21:51:58.707Z,8.2
2019-03-31T21:57:01.139Z,8
2019-03-31T22:02:03.649Z,7.7
2019-03-31T22:12:08.789Z,7.1
2019-03-31T22:17:10.956Z,6.8
2019-03-31T22:22:13.405Z,6.5
2019-03-31T22:27:16.001Z,6.2
2019-03-31T22:32:18.320Z,5.9
2019-03-31T22:37:20.802Z,5.7
2019-03-31T22:42:23.533Z,5.4
2019-03-31T22:47:25.700Z,5.2
2019-03-31T22:52:28.266Z,5
2019-03-31T22:57:30.611Z,4.8
2019-03-31T23:02:33.071Z,4.6
2019-03-31T23:07:35.557Z,4.5
2019-03-31T23:12:38.014Z,4.3
2019-03-31T23:17:40.455Z,4.1
2019-03-31T23:22:43.029Z,4
2019-03-31T23:27:45.389Z,3.9
2019-03-31T23:32:47.855Z,3.8
2019-03-31T23:37:50.409Z,3.6
2019-03-31T23:42:52.796Z,3.6
2019-03-31T23:47:55.246Z,3.4
2019-03-31T23:52:57.709Z,3.2
2019-03-31T23:58:00.178Z,3.1
